Time;durP1;ratioP1;P1;durP2;ratioP2;P2;SDS_P1;SDS_P2;PMS_P1;PMS_P2;Temp;Humidity;BMP_temperature;BMP_pressure;BME280_temperature;BME280_humidity;BME280_pressure;Samples;Min_cycle;Max_cycle;Signal;HPM_P1;HPM_P2
2023/05/10 00:00:34;;;;;;;7.18;6.57;;;;;;;;;;5047893;28;20047;-75
2023/05/10 00:03:00;;;;;;;7.07;6.38;;;;;;;;;;5045340;28;20044;-74
2023/05/10 00:05:26;;;;;;;6.53;5.93;;;;;;;;;;5051524;28;20049;-74
2023/05/10 00:07:52;;;;;;;6.65;6.05;;;;;;;;;;5048841;28;20037;-74
2023/05/10 00:10:18;;;;;;;6.00;5.50;;;;;;;;;;5044998;28;20056;-73
2023/05/10 00:12:44;;;;;;;5.53;5.03;;;;;;;;;;5044010;28;20036;-74
2023/05/10 00:15:10;;;;;;;6.57;5.97;;;;;;;;;;5044143;28;20041;-74
2023/05/10 00:17:37;;;;;;;7.60;6.85;;;;;;;;;;5050045;28;20386;-75
2023/05/10 00:20:04;;;;;;;8.32;5.47;;;;;;;;;;5035610;28;20049;-74
2023/05/10 00:22:31;;;;;;;6.32;5.50;;;;;;;;;;5043206;28;20049;-74
2023/05/10 00:24:57;;;;;;;7.65;5.78;;;;;;;;;;5038464;28;20051;-74
2023/05/10 00:27:23;;;;;;;9.43;8.43;;;;;;;;;;5034350;28;20041;-74
2023/05/10 00:29:49;;;;;;;9.60;6.97;;;;;;;;;;5038542;28;20049;-75
2023/05/10 00:32:15;;;;;;;13.00;7.68;;;;;;;;;;5032853;28;20057;-74
2023/05/10 00:34:41;;;;;;;10.57;7.95;;;;;;;;;;5033668;28;20455;-74
2023/05/10 00:37:07;;;;;;;16.35;7.90;;;;;;;;;;5033408;28;20071;-75
2023/05/10 00:39:33;;;;;;;15.40;7.78;;;;;;;;;;5040525;28;20046;-75
2023/05/10 00:42:00;;;;;;;13.13;8.57;;;;;;;;;;5045008;28;20388;-74
2023/05/10 00:44:26;;;;;;;9.45;6.28;;;;;;;;;;5040780;28;20123;-75
2023/05/10 00:46:52;;;;;;;9.70;7.35;;;;;;;;;;5037684;28;20060;-75
2023/05/10 00:49:18;;;;;;;8.05;7.20;;;;;;;;;;5033060;28;20053;-75
2023/05/10 00:51:44;;;;;;;8.55;7.65;;;;;;;;;;5044251;28;20080;-76
2023/05/10 00:54:12;;;;;;;8.68;7.75;;;;;;;;;;5045118;28;20045;-75
2023/05/10 00:56:38;;;;;;;10.18;7.85;;;;;;;;;;5046963;28;20056;-75
2023/05/10 00:59:04;;;;;;;7.85;6.95;;;;;;;;;;5032393;28;20052;-75
2023/05/10 01:01:31;;;;;;;10.02;7.15;;;;;;;;;;5041967;28;20095;-75
2023/05/10 01:03:57;;;;;;;6.55;5.38;;;;;;;;;;5048770;28;20396;-75
2023/05/10 01:06:23;;;;;;;8.73;6.05;;;;;;;;;;5030470;28;20064;-75
2023/05/10 01:08:50;;;;;;;7.75;6.63;;;;;;;;;;5040391;28;20041;-75
2023/05/10 01:11:16;;;;;;;7.18;5.32;;;;;;;;;;5043723;28;20049;-75
2023/05/10 01:13:43;;;;;;;8.10;5.85;;;;;;;;;;5038910;28;20041;-75
2023/05/10 01:16:09;;;;;;;6.90;5.88;;;;;;;;;;5045442;28;20041;-75
2023/05/10 01:18:40;;;;;;;8.05;5.45;;;;;;;;;;5038346;28;20037;-75
2023/05/10 01:21:25;;;;;;;9.98;6.88;;;;;;;;;;5039787;28;20144;-75
2023/05/10 01:24:07;;;;;;;8.98;5.72;;;;;;;;;;5045752;28;20045;-75
2023/05/10 01:26:45;;;;;;;7.05;4.95;;;;;;;;;;5030907;28;20050;-75
2023/05/10 01:29:11;;;;;;;6.28;4.68;;;;;;;;;;5041191;28;20048;-75
2023/05/10 01:31:37;;;;;;;8.23;5.30;;;;;;;;;;5050345;28;20051;-76
2023/05/10 01:34:07;;;;;;;7.78;6.00;;;;;;;;;;5041749;28;20480;-75
2023/05/10 01:36:38;;;;;;;8.07;5.30;;;;;;;;;;5038258;28;20064;-75
2023/05/10 01:39:04;;;;;;;5.32;4.55;;;;;;;;;;5042151;28;20082;-75
2023/05/10 01:41:44;;;;;;;8.07;5.53;;;;;;;;;;5048530;28;20057;-74
2023/05/10 01:44:29;;;;;;;5.93;5.32;;;;;;;;;;5039358;28;20048;-76
2023/05/10 01:47:12;;;;;;;5.35;4.30;;;;;;;;;;5033438;28;20048;-75
2023/05/10 01:49:41;;;;;;;4.00;3.70;;;;;;;;;;5046141;28;20133;-75
2023/05/10 01:52:10;;;;;;;6.13;4.90;;;;;;;;;;5044047;28;20045;-75
2023/05/10 01:54:38;;;;;;;3.70;3.40;;;;;;;;;;5048312;28;20587;-75
2023/05/10 01:57:05;;;;;;;3.60;3.30;;;;;;;;;;5049573;28;20049;-75
2023/05/10 01:59:40;;;;;;;4.10;3.80;;;;;;;;;;5035955;28;20490;-75
2023/05/10 02:02:07;;;;;;;3.88;3.33;;;;;;;;;;5045529;28;20051;-75
2023/05/10 02:04:36;;;;;;;4.55;4.07;;;;;;;;;;5050241;28;20048;-74
2023/05/10 02:07:02;;;;;;;3.70;3.40;;;;;;;;;;5032633;28;20476;-75
2023/05/10 02:09:30;;;;;;;4.28;3.92;;;;;;;;;;5040511;28;20390;-76
2023/05/10 02:11:57;;;;;;;3.60;3.40;;;;;;;;;;5046528;28;20072;-75
2023/05/10 02:14:24;;;;;;;3.88;3.50;;;;;;;;;;5035832;28;20048;-76
2023/05/10 02:16:52;;;;;;;4.60;4.07;;;;;;;;;;5035645;28;20506;-75
2023/05/10 02:19:19;;;;;;;3.83;3.53;;;;;;;;;;5039415;28;20443;-76
2023/05/10 02:21:46;;;;;;;4.10;3.70;;;;;;;;;;5045872;28;20044;-75
2023/05/10 02:24:12;;;;;;;4.35;3.95;;;;;;;;;;5048057;28;20053;-75
2023/05/10 02:26:38;;;;;;;4.57;3.72;;;;;;;;;;5046606;28;20492;-75
2023/05/10 02:29:06;;;;;;;4.50;4.10;;;;;;;;;;5032260;28;20041;-75
2023/05/10 02:31:33;;;;;;;3.78;3.47;;;;;;;;;;5038491;28;20042;-76
2023/05/10 02:34:00;;;;;;;3.63;3.35;;;;;;;;;;5029659;28;20049;-75
2023/05/10 02:36:30;;;;;;;3.50;3.20;;;;;;;;;;5045649;28;20120;-75
2023/05/10 02:38:56;;;;;;;3.50;3.20;;;;;;;;;;5047420;28;20549;-75
2023/05/10 02:41:23;;;;;;;3.92;3.63;;;;;;;;;;5042609;28;20148;-75
2023/05/10 02:43:55;;;;;;;4.45;4.05;;;;;;;;;;5063238;28;20045;-75
2023/05/10 02:46:21;;;;;;;4.47;4.05;;;;;;;;;;5032251;28;20095;-76
2023/05/10 02:48:47;;;;;;;4.10;3.63;;;;;;;;;;5042556;28;20075;-75
2023/05/10 02:51:14;;;;;;;3.60;3.30;;;;;;;;;;5044591;28;20087;-75
2023/05/10 02:53:44;;;;;;;4.60;3.38;;;;;;;;;;5041979;28;20083;-75
2023/05/10 02:56:13;;;;;;;3.42;3.20;;;;;;;;;;5037821;28;20049;-75
2023/05/10 02:58:39;;;;;;;3.45;2.55;;;;;;;;;;5041777;28;20377;-75
2023/05/10 03:01:07;;;;;;;4.32;3.22;;;;;;;;;;5050279;28;20044;-76
2023/05/10 03:03:33;;;;;;;2.92;2.72;;;;;;;;;;5043410;28;20045;-75
2023/05/10 03:05:59;;;;;;;3.38;3.08;;;;;;;;;;5045656;28;20049;-75
2023/05/10 03:08:25;;;;;;;3.03;2.72;;;;;;;;;;5040878;28;20112;-75
2023/05/10 03:11:17;;;;;;;3.55;3.25;;;;;;;;;;5050637;28;20115;-75
2023/05/10 03:13:46;;;;;;;4.20;3.40;;;;;;;;;;5046370;28;20110;-75
2023/05/10 03:16:15;;;;;;;3.72;3.20;;;;;;;;;;5050672;28;20041;-75
2023/05/10 03:18:44;;;;;;;3.63;3.33;;;;;;;;;;5038224;28;20484;-75
2023/05/10 03:21:12;;;;;;;3.95;3.33;;;;;;;;;;5042745;28;20045;-75
2023/05/10 03:23:47;;;;;;;3.55;3.25;;;;;;;;;;5037210;28;20049;-75
2023/05/10 03:26:17;;;;;;;3.15;2.85;;;;;;;;;;5050448;28;20053;-75
2023/05/10 03:28:43;;;;;;;2.97;2.78;;;;;;;;;;5045981;28;20043;-75
2023/05/10 03:31:10;;;;;;;3.03;2.72;;;;;;;;;;5041002;28;20480;-75
2023/05/10 03:33:36;;;;;;;3.83;3.53;;;;;;;;;;5038338;28;20477;-75
2023/05/10 03:36:02;;;;;;;3.00;2.70;;;;;;;;;;5050404;28;20063;-76
2023/05/10 03:38:28;;;;;;;3.83;3.30;;;;;;;;;;5043405;28;20045;-76
2023/05/10 03:40:54;;;;;;;4.18;3.80;;;;;;;;;;5049500;28;20060;-75
2023/05/10 03:43:20;;;;;;;3.75;3.45;;;;;;;;;;5038449;28;20045;-76
2023/05/10 03:45:46;;;;;;;4.03;3.67;;;;;;;;;;5046248;28;20106;-75
2023/05/10 03:48:13;;;;;;;4.70;4.05;;;;;;;;;;5045843;28;20554;-75
2023/05/10 03:50:39;;;;;;;4.60;4.20;;;;;;;;;;5039641;28;20092;-75
2023/05/10 03:53:05;;;;;;;4.75;4.35;;;;;;;;;;5039638;28;20049;-75
2023/05/10 03:55:34;;;;;;;6.30;4.55;;;;;;;;;;5045080;28;20501;-75
2023/05/10 03:58:00;;;;;;;4.82;4.40;;;;;;;;;;5048967;28;20037;-76
2023/05/10 04:00:26;;;;;;;6.10;4.43;;;;;;;;;;5045664;28;20439;-76
2023/05/10 04:02:52;;;;;;;4.43;3.80;;;;;;;;;;5039965;28;20048;-76
2023/05/10 04:05:18;;;;;;;4.75;4.25;;;;;;;;;;5049808;28;20104;-75
2023/05/10 04:07:44;;;;;;;5.50;4.95;;;;;;;;;;5046604;28;20053;-75
2023/05/10 04:10:10;;;;;;;4.97;4.47;;;;;;;;;;5045065;28;20451;-75
2023/05/10 04:12:36;;;;;;;5.50;4.72;;;;;;;;;;5053561;28;20859;-75
2023/05/10 04:15:03;;;;;;;4.40;4.00;;;;;;;;;;5042847;28;20043;-75
2023/05/10 04:17:29;;;;;;;4.40;4.00;;;;;;;;;;5053858;28;20041;-76
2023/05/10 04:19:55;;;;;;;5.18;4.78;;;;;;;;;;5045914;28;20045;-75
2023/05/10 04:22:21;;;;;;;4.88;4.47;;;;;;;;;;5051266;28;20090;-76
2023/05/10 04:24:47;;;;;;;5.07;4.35;;;;;;;;;;5035798;28;20037;-76
2023/05/10 04:27:13;;;;;;;4.55;4.15;;;;;;;;;;5033014;28;20049;-75
2023/05/10 04:29:39;;;;;;;4.72;3.13;;;;;;;;;;5036817;28;20037;-75
2023/05/10 04:32:05;;;;;;;4.30;3.90;;;;;;;;;;5047962;28;20499;-75
2023/05/10 04:34:31;;;;;;;4.90;4.30;;;;;;;;;;5033921;28;20045;-75
2023/05/10 04:36:57;;;;;;;5.20;4.63;;;;;;;;;;5033512;28;20042;-75
2023/05/10 04:39:23;;;;;;;4.10;3.70;;;;;;;;;;5050399;28;20041;-75
2023/05/10 04:41:49;;;;;;;5.63;4.85;;;;;;;;;;5047733;28;20715;-76
2023/05/10 04:44:15;;;;;;;5.95;5.20;;;;;;;;;;5036618;28;20051;-75
2023/05/10 04:46:41;;;;;;;5.80;5.20;;;;;;;;;;5050728;28;20045;-75
2023/05/10 04:49:07;;;;;;;5.53;4.65;;;;;;;;;;5032824;28;20052;-75
2023/05/10 04:51:33;;;;;;;5.60;4.22;;;;;;;;;;5048856;28;20167;-75
2023/05/10 04:53:59;;;;;;;5.40;4.75;;;;;;;;;;5033497;28;20068;-75
2023/05/10 04:56:25;;;;;;;5.57;4.55;;;;;;;;;;5042889;28;20053;-75
2023/05/10 04:58:51;;;;;;;6.68;5.18;;;;;;;;;;5042698;28;20079;-75
2023/05/10 05:01:17;;;;;;;5.78;5.05;;;;;;;;;;5047915;28;20057;-75
2023/05/10 05:03:43;;;;;;;6.70;5.20;;;;;;;;;;5036638;28;20076;-75
2023/05/10 05:06:09;;;;;;;6.35;5.28;;;;;;;;;;5064927;28;20084;-77
2023/05/10 05:08:35;;;;;;;5.55;4.70;;;;;;;;;;5035456;28;20042;-75
2023/05/10 05:11:01;;;;;;;4.82;4.03;;;;;;;;;;5051458;28;20052;-76
2023/05/10 05:13:27;;;;;;;9.20;6.25;;;;;;;;;;5047500;28;20136;-76
2023/05/10 05:15:54;;;;;;;11.18;7.63;;;;;;;;;;5043797;28;20091;-76
2023/05/10 05:18:20;;;;;;;6.72;4.00;;;;;;;;;;5033934;28;20131;-77
2023/05/10 05:20:46;;;;;;;4.32;3.83;;;;;;;;;;5052426;28;20515;-76
2023/05/10 05:23:12;;;;;;;4.85;3.85;;;;;;;;;;5040079;28;20045;-75
2023/05/10 05:25:38;;;;;;;4.05;3.42;;;;;;;;;;5042059;28;20041;-76
2023/05/10 05:28:04;;;;;;;3.90;3.30;;;;;;;;;;5046194;28;20424;-76
2023/05/10 05:30:30;;;;;;;3.20;2.90;;;;;;;;;;5044090;28;20086;-75
2023/05/10 05:32:56;;;;;;;3.67;3.05;;;;;;;;;;5039212;28;20135;-76
2023/05/10 05:35:22;;;;;;;4.57;3.10;;;;;;;;;;5049064;28;20620;-76
2023/05/10 05:37:48;;;;;;;3.13;2.83;;;;;;;;;;5035748;28;20048;-76
2023/05/10 05:40:14;;;;;;;2.95;2.65;;;;;;;;;;5047949;28;20049;-75
2023/05/10 05:42:41;;;;;;;3.05;2.83;;;;;;;;;;5048555;28;20155;-76
2023/05/10 05:45:08;;;;;;;3.30;2.80;;;;;;;;;;5049893;28;20543;-75
2023/05/10 05:47:34;;;;;;;2.70;2.50;;;;;;;;;;5041946;28;20530;-75
2023/05/10 05:50:00;;;;;;;2.40;2.20;;;;;;;;;;5038880;28;20087;-76
2023/05/10 05:52:26;;;;;;;2.70;2.45;;;;;;;;;;5051015;28;21842;-76
2023/05/10 05:54:52;;;;;;;3.00;2.55;;;;;;;;;;5052372;28;20037;-76
2023/05/10 05:57:18;;;;;;;2.80;2.40;;;;;;;;;;5032864;28;20100;-75
2023/05/10 05:59:45;;;;;;;2.65;2.45;;;;;;;;;;5042514;28;20556;-75
2023/05/10 06:02:11;;;;;;;3.10;2.80;;;;;;;;;;5031811;28;20500;-75
2023/05/10 06:04:37;;;;;;;2.83;2.50;;;;;;;;;;5051510;28;20079;-75
2023/05/10 06:07:03;;;;;;;2.78;2.58;;;;;;;;;;5033072;28;20052;-76
2023/05/10 06:09:29;;;;;;;3.35;3.05;;;;;;;;;;5048370;28;20051;-76
2023/05/10 06:11:56;;;;;;;5.72;3.40;;;;;;;;;;5047825;28;20048;-76
2023/05/10 06:14:22;;;;;;;6.57;3.92;;;;;;;;;;5035808;28;20049;-76
2023/05/10 06:16:48;;;;;;;5.75;4.13;;;;;;;;;;5031477;28;20048;-75
2023/05/10 06:19:14;;;;;;;3.80;3.50;;;;;;;;;;5044509;28;20455;-76
2023/05/10 06:21:40;;;;;;;5.13;3.97;;;;;;;;;;5046980;28;20045;-76
2023/05/10 06:24:06;;;;;;;4.22;3.63;;;;;;;;;;5037820;28;20049;-76
2023/05/10 06:26:32;;;;;;;4.60;3.72;;;;;;;;;;5032092;28;20041;-76
2023/05/10 06:28:58;;;;;;;4.18;3.78;;;;;;;;;;5040732;28;20053;-76
2023/05/10 06:31:24;;;;;;;3.40;3.10;;;;;;;;;;5038767;28;20056;-76
2023/05/10 06:33:50;;;;;;;3.83;3.30;;;;;;;;;;5038975;28;20040;-76
2023/05/10 06:36:16;;;;;;;3.05;2.75;;;;;;;;;;5046462;28;20056;-75
2023/05/10 06:38:42;;;;;;;2.70;2.50;;;;;;;;;;5037684;28;20161;-76
2023/05/10 06:41:08;;;;;;;2.80;2.60;;;;;;;;;;5042597;28;20049;-76
2023/05/10 06:43:34;;;;;;;4.10;3.70;;;;;;;;;;5048045;28;20614;-75
2023/05/10 06:46:00;;;;;;;5.72;2.90;;;;;;;;;;5048891;28;20052;-76
2023/05/10 06:48:26;;;;;;;3.20;3.00;;;;;;;;;;5051519;28;20492;-76
2023/05/10 06:50:52;;;;;;;2.85;2.65;;;;;;;;;;5051053;28;20179;-76
2023/05/10 06:53:18;;;;;;;2.60;2.40;;;;;;;;;;5046900;28;20509;-76
2023/05/10 06:55:44;;;;;;;2.45;2.30;;;;;;;;;;5050031;28;20055;-76
2023/05/10 06:58:10;;;;;;;2.35;2.15;;;;;;;;;;5049971;28;20063;-75
2023/05/10 07:00:40;;;;;;;3.00;2.67;;;;;;;;;;5040406;28;20060;-77
2023/05/10 07:03:06;;;;;;;2.42;2.30;;;;;;;;;;5036934;28;20132;-76
2023/05/10 07:05:32;;;;;;;2.40;2.30;;;;;;;;;;5036401;28;20049;-75
2023/05/10 07:07:58;;;;;;;2.50;2.30;;;;;;;;;;5059031;28;20437;-76
2023/05/10 07:10:24;;;;;;;2.85;2.60;;;;;;;;;;5034493;28;20087;-76
2023/05/10 07:12:50;;;;;;;2.90;2.60;;;;;;;;;;5041520;28;20048;-75
2023/05/10 07:15:16;;;;;;;2.95;2.70;;;;;;;;;;5033651;28;20041;-77
2023/05/10 07:17:43;;;;;;;3.30;3.00;;;;;;;;;;5030603;28;20046;-76
2023/05/10 07:20:09;;;;;;;3.17;2.88;;;;;;;;;;5049761;28;20053;-76
2023/05/10 07:22:38;;;;;;;3.70;3.03;;;;;;;;;;5068883;28;20044;-75
2023/05/10 07:25:04;;;;;;;3.30;3.00;;;;;;;;;;5061691;28;20709;-76
2023/05/10 07:27:30;;;;;;;3.20;2.90;;;;;;;;;;5047767;28;20123;-76
2023/05/10 07:29:56;;;;;;;3.20;2.90;;;;;;;;;;5052408;28;20049;-76
2023/05/10 07:32:22;;;;;;;3.80;2.83;;;;;;;;;;5054946;28;20106;-76
2023/05/10 07:34:48;;;;;;;2.83;2.58;;;;;;;;;;5041280;28;20128;-75
2023/05/10 07:37:14;;;;;;;2.80;2.60;;;;;;;;;;5035460;28;20124;-76
2023/05/10 07:39:41;;;;;;;3.10;2.80;;;;;;;;;;5053145;28;20087;-76
2023/05/10 07:42:08;;;;;;;2.90;2.60;;;;;;;;;;5054111;28;20044;-76
2023/05/10 07:44:34;;;;;;;3.13;2.83;;;;;;;;;;5053093;28;20087;-77
2023/05/10 07:47:00;;;;;;;3.58;3.28;;;;;;;;;;5052699;28;20455;-77
2023/05/10 07:49:26;;;;;;;4.53;4.13;;;;;;;;;;5051514;28;20044;-76
2023/05/10 07:51:52;;;;;;;5.20;4.68;;;;;;;;;;5041737;28;20045;-76
2023/05/10 07:54:18;;;;;;;6.97;5.28;;;;;;;;;;5041781;28;21984;-76
2023/05/10 07:56:46;;;;;;;5.72;4.63;;;;;;;;;;5043131;28;20060;-76
2023/05/10 07:59:15;;;;;;;5.30;4.80;;;;;;;;;;5040042;28;20085;-78
2023/05/10 08:01:42;;;;;;;6.65;5.38;;;;;;;;;;5039162;28;20056;-76
2023/05/10 08:04:08;;;;;;;6.90;5.10;;;;;;;;;;5054414;28;20045;-76
2023/05/10 08:06:34;;;;;;;8.57;5.75;;;;;;;;;;5044771;28;20365;-77
2023/05/10 08:09:01;;;;;;;8.50;5.80;;;;;;;;;;5039155;28;20052;-76
2023/05/10 08:11:30;;;;;;;7.93;6.00;;;;;;;;;;5037501;28;20102;-76
2023/05/10 08:13:56;;;;;;;8.88;6.25;;;;;;;;;;5038752;28;20044;-77
2023/05/10 08:16:22;;;;;;;7.30;5.50;;;;;;;;;;5036172;28;20374;-77
2023/05/10 08:18:50;;;;;;;7.93;5.95;;;;;;;;;;5035927;28;20501;-77
2023/05/10 08:21:16;;;;;;;9.82;6.63;;;;;;;;;;5030115;28;20042;-77
2023/05/10 08:23:43;;;;;;;9.02;6.55;;;;;;;;;;5041989;28;20049;-77
2023/05/10 08:26:09;;;;;;;9.40;6.35;;;;;;;;;;5043345;28;20060;-77
2023/05/10 08:28:35;;;;;;;9.43;6.43;;;;;;;;;;5044283;28;20400;-77
2023/05/10 08:31:01;;;;;;;9.48;6.15;;;;;;;;;;5042254;28;20578;-76
2023/05/10 08:33:27;;;;;;;8.30;5.53;;;;;;;;;;5039694;28;20053;-77
2023/05/10 08:35:53;;;;;;;6.13;4.57;;;;;;;;;;5036348;28;20047;-77
2023/05/10 08:38:19;;;;;;;7.47;5.95;;;;;;;;;;5052206;28;20037;-76
2023/05/10 08:40:45;;;;;;;7.90;5.63;;;;;;;;;;5040391;28;20131;-76
2023/05/10 08:43:15;;;;;;;8.40;5.55;;;;;;;;;;5040933;28;20484;-77
2023/05/10 08:45:42;;;;;;;8.48;6.07;;;;;;;;;;5037615;28;20138;-77
2023/05/10 08:48:09;;;;;;;8.07;5.70;;;;;;;;;;5039117;28;20045;-76
2023/05/10 08:50:36;;;;;;;7.88;6.38;;;;;;;;;;5037882;28;20476;-77
2023/05/10 08:53:04;;;;;;;9.68;7.25;;;;;;;;;;5041525;28;20045;-76
2023/05/10 08:55:31;;;;;;;10.35;7.15;;;;;;;;;;5070616;28;20053;-76
2023/05/10 08:57:57;;;;;;;7.43;5.97;;;;;;;;;;5041364;28;20046;-77
2023/05/10 09:00:23;;;;;;;7.95;6.25;;;;;;;;;;5042474;28;20411;-77
2023/05/10 09:02:50;;;;;;;8.55;6.35;;;;;;;;;;5040994;28;20135;-77
2023/05/10 09:05:17;;;;;;;7.32;5.78;;;;;;;;;;5036686;28;20085;-76
2023/05/10 09:07:43;;;;;;;8.60;7.00;;;;;;;;;;5037437;28;20052;-77
2023/05/10 09:10:09;;;;;;;8.60;6.80;;;;;;;;;;5035645;28;20080;-77
2023/05/10 09:12:36;;;;;;;7.55;6.20;;;;;;;;;;5053356;28;20485;-77
2023/05/10 09:15:02;;;;;;;9.23;7.35;;;;;;;;;;5042013;28;20132;-76
2023/05/10 09:17:29;;;;;;;11.02;8.05;;;;;;;;;;5037895;28;20041;-77
2023/05/10 09:19:59;;;;;;;7.88;6.45;;;;;;;;;;5036290;28;20530;-77
2023/05/10 09:22:25;;;;;;;10.40;8.43;;;;;;;;;;5041192;28;20048;-77
2023/05/10 09:25:05;;;;;;;11.10;8.05;;;;;;;;;;5040109;28;20041;-77
2023/05/10 09:27:31;;;;;;;10.18;8.27;;;;;;;;;;5069187;28;20187;-77
2023/05/10 09:29:57;;;;;;;11.00;8.55;;;;;;;;;;5040776;28;20127;-78
2023/05/10 09:32:36;;;;;;;11.15;10.05;;;;;;;;;;5038191;28;20507;-77
2023/05/10 09:35:08;;;;;;;11.88;8.48;;;;;;;;;;5039191;28;20053;-76
2023/05/10 09:37:35;;;;;;;10.13;8.35;;;;;;;;;;5036368;28;20120;-77
2023/05/10 09:40:01;;;;;;;10.88;8.77;;;;;;;;;;5044989;28;20143;-77
2023/05/10 09:42:27;;;;;;;13.13;10.07;;;;;;;;;;5047381;28;20041;-77
2023/05/10 09:44:53;;;;;;;13.52;9.02;;;;;;;;;;5045455;28;20067;-78
2023/05/10 09:47:19;;;;;;;13.70;9.95;;;;;;;;;;5048303;28;20041;-77
2023/05/10 09:49:50;;;;;;;10.75;9.13;;;;;;;;;;5072678;28;20045;-77
2023/05/10 09:52:16;;;;;;;8.70;7.57;;;;;;;;;;5042087;28;20057;-77
2023/05/10 09:54:46;;;;;;;8.45;7.53;;;;;;;;;;5038708;28;20069;-78
2023/05/10 09:57:22;;;;;;;10.00;7.75;;;;;;;;;;5030766;28;20497;-77
2023/05/10 09:59:49;;;;;;;10.55;7.80;;;;;;;;;;5038416;28;20037;-78
2023/05/10 10:02:15;;;;;;;10.50;7.35;;;;;;;;;;5050974;28;20068;-78
2023/05/10 10:04:41;;;;;;;10.07;6.95;;;;;;;;;;5019506;28;20048;-78
2023/05/10 10:07:07;;;;;;;7.03;6.30;;;;;;;;;;5038033;28;20103;-77
2023/05/10 10:09:34;;;;;;;7.35;6.55;;;;;;;;;;5043742;28;20036;-78
2023/05/10 10:12:01;;;;;;;8.25;6.68;;;;;;;;;;5033471;28;20761;-78
2023/05/10 10:14:28;;;;;;;8.27;6.72;;;;;;;;;;5042741;28;20126;-78
2023/05/10 10:16:54;;;;;;;10.60;8.45;;;;;;;;;;5041470;28;20044;-78
2023/05/10 10:19:20;;;;;;;7.22;6.50;;;;;;;;;;5032916;28;20137;-79
2023/05/10 10:21:47;;;;;;;8.07;6.72;;;;;;;;;;5038808;28;20041;-77
2023/05/10 10:24:13;;;;;;;7.10;6.40;;;;;;;;;;5032780;28;20044;-78
2023/05/10 10:26:40;;;;;;;8.88;6.30;;;;;;;;;;5030864;28;20524;-78
2023/05/10 10:29:29;;;;;;;9.43;6.68;;;;;;;;;;5030410;28;20045;-78
2023/05/10 10:32:02;;;;;;;7.78;6.78;;;;;;;;;;5034149;28;20049;-79
2023/05/10 10:34:29;;;;;;;6.85;5.65;;;;;;;;;;5034017;28;20072;-79
2023/05/10 10:36:56;;;;;;;6.90;5.95;;;;;;;;;;5031578;28;20465;-79
2023/05/10 10:39:24;;;;;;;7.45;6.75;;;;;;;;;;5035333;28;20049;-78
2023/05/10 10:41:51;;;;;;;8.38;7.07;;;;;;;;;;5035843;28;20317;-79
2023/05/10 10:44:24;;;;;;;8.50;7.57;;;;;;;;;;5047912;28;20077;-79
2023/05/10 10:47:08;;;;;;;9.77;8.63;;;;;;;;;;5036938;28;20404;-80
2023/05/10 10:49:38;;;;;;;10.18;8.15;;;;;;;;;;5039349;28;20404;-79
2023/05/10 10:52:23;;;;;;;10.23;8.48;;;;;;;;;;5040123;28;20477;-79
2023/05/10 10:54:59;;;;;;;13.30;9.40;;;;;;;;;;5029188;28;20401;-79
2023/05/10 10:57:26;;;;;;;11.20;9.20;;;;;;;;;;5030248;28;20053;-79
2023/05/10 10:59:52;;;;;;;13.18;9.25;;;;;;;;;;5032095;28;20046;-79
2023/05/10 11:02:53;;;;;;;14.25;10.45;;;;;;;;;;5046032;28;20051;-78
2023/05/10 11:05:25;;;;;;;13.68;9.60;;;;;;;;;;4982191;28;20190;-77
2023/05/10 11:07:53;;;;;;;14.07;11.25;;;;;;;;;;5027418;28;20057;-77
2023/05/10 11:10:23;;;;;;;14.45;11.10;;;;;;;;;;5032587;28;20608;-78
2023/05/10 11:13:06;;;;;;;15.98;11.68;;;;;;;;;;5047543;28;20098;-78
2023/05/10 11:15:32;;;;;;;15.75;11.40;;;;;;;;;;5031241;28;20120;-78
2023/05/10 11:17:58;;;;;;;17.02;12.70;;;;;;;;;;5037453;28;20045;-79
2023/05/10 11:20:32;;;;;;;17.38;12.45;;;;;;;;;;5048971;28;20049;-78
2023/05/10 11:22:58;;;;;;;16.42;12.00;;;;;;;;;;5035542;28;20123;-79
2023/05/10 11:25:28;;;;;;;17.23;12.45;;;;;;;;;;5041611;28;20045;-74
2023/05/10 11:27:54;;;;;;;17.40;12.35;;;;;;;;;;5030718;28;20064;-77
2023/05/10 11:30:20;;;;;;;16.70;12.93;;;;;;;;;;5029169;28;20477;-78
2023/05/10 11:32:46;;;;;;;20.58;13.77;;;;;;;;;;5036906;28;20049;-79
2023/05/10 11:35:12;;;;;;;15.70;11.93;;;;;;;;;;5046166;28;20037;-77
2023/05/10 11:37:43;;;;;;;18.38;13.80;;;;;;;;;;5049991;28;20087;-79
2023/05/10 11:40:09;;;;;;;15.85;12.05;;;;;;;;;;5038989;28;20088;-77
2023/05/10 11:42:38;;;;;;;16.00;12.27;;;;;;;;;;5030055;28;20068;-77
2023/05/10 11:45:05;;;;;;;15.65;11.52;;;;;;;;;;5030585;28;20037;-77
2023/05/10 11:47:31;;;;;;;14.25;11.15;;;;;;;;;;5049833;28;20515;-77
2023/05/10 11:49:57;;;;;;;14.00;11.50;;;;;;;;;;5044052;28;20184;-77
2023/05/10 11:52:24;;;;;;;14.43;10.27;;;;;;;;;;5028986;28;20050;-78
2023/05/10 11:54:56;;;;;;;13.48;11.00;;;;;;;;;;5029966;28;20053;-78
2023/05/10 11:57:28;;;;;;;13.52;11.15;;;;;;;;;;5030954;28;20407;-79
2023/05/10 11:59:57;;;;;;;14.40;10.77;;;;;;;;;;5031980;28;20038;-79
2023/05/10 12:02:23;;;;;;;12.07;9.25;;;;;;;;;;5034343;28;20046;-79
2023/05/10 12:04:50;;;;;;;12.82;10.35;;;;;;;;;;5035771;28;20166;-78
2023/05/10 12:07:16;;;;;;;11.65;9.43;;;;;;;;;;5032265;28;20138;-76
2023/05/10 12:10:02;;;;;;;11.90;9.95;;;;;;;;;;5035335;28;20045;-78
2023/05/10 12:12:35;;;;;;;13.70;11.05;;;;;;;;;;5036261;28;20071;-78
2023/05/10 12:15:03;;;;;;;13.50;10.88;;;;;;;;;;5045786;28;20050;-78
2023/05/10 12:17:29;;;;;;;15.18;11.70;;;;;;;;;;5039024;28;20057;-79
2023/05/10 12:19:59;;;;;;;13.18;10.75;;;;;;;;;;5033044;28;20041;-79
2023/05/10 12:22:25;;;;;;;11.93;9.70;;;;;;;;;;5030751;28;20481;-79
2023/05/10 12:24:51;;;;;;;10.93;8.70;;;;;;;;;;5040412;28;20045;-79
2023/05/10 12:27:17;;;;;;;10.00;8.15;;;;;;;;;;5032664;28;20065;-77
2023/05/10 12:29:44;;;;;;;9.25;8.10;;;;;;;;;;5033953;28;20049;-77
2023/05/10 12:32:10;;;;;;;10.30;8.68;;;;;;;;;;5034944;28;20045;-77
2023/05/10 12:34:38;;;;;;;9.57;7.68;;;;;;;;;;5030893;28;20056;-78
2023/05/10 12:37:04;;;;;;;9.70;8.68;;;;;;;;;;5032983;28;20144;-78
2023/05/10 12:39:44;;;;;;;10.45;8.25;;;;;;;;;;5034486;28;20041;-78
2023/05/10 12:42:10;;;;;;;12.85;11.68;;;;;;;;;;5034142;28;20107;-77
2023/05/10 12:44:36;;;;;;;8.52;7.63;;;;;;;;;;5036313;28;20049;-78
2023/05/10 12:47:02;;;;;;;8.88;7.97;;;;;;;;;;5033394;28;20041;-79
2023/05/10 12:49:28;;;;;;;7.90;7.07;;;;;;;;;;5044463;28;20409;-78
2023/05/10 12:51:54;;;;;;;6.18;5.60;;;;;;;;;;5035772;28;20049;-78
2023/05/10 12:54:20;;;;;;;8.65;6.40;;;;;;;;;;5041170;28;20045;-79
2023/05/10 12:56:46;;;;;;;6.75;6.05;;;;;;;;;;5050811;28;20068;-79
2023/05/10 12:59:12;;;;;;;5.53;5.03;;;;;;;;;;5038715;28;20053;-79
2023/05/10 13:01:38;;;;;;;5.63;5.13;;;;;;;;;;5037550;28;20037;-79
2023/05/10 13:04:05;;;;;;;5.40;4.90;;;;;;;;;;5034772;28;20044;-78
2023/05/10 13:06:31;;;;;;;5.75;5.15;;;;;;;;;;5037774;28;20522;-78
2023/05/10 13:08:57;;;;;;;5.53;5.03;;;;;;;;;;5034086;28;20814;-79
2023/05/10 13:11:23;;;;;;;6.72;6.03;;;;;;;;;;5032337;28;20485;-79
2023/05/10 13:13:49;;;;;;;5.53;5.07;;;;;;;;;;5036408;28;20046;-79
2023/05/10 13:16:15;;;;;;;5.97;5.45;;;;;;;;;;5031238;28;20045;-78
2023/05/10 13:18:41;;;;;;;5.00;4.50;;;;;;;;;;5031744;28;20068;-79
2023/05/10 13:21:07;;;;;;;6.35;5.75;;;;;;;;;;5032730;28;20049;-78
2023/05/10 13:23:34;;;;;;;4.93;4.53;;;;;;;;;;5030901;28;20045;-78
2023/05/10 13:26:00;;;;;;;5.05;4.55;;;;;;;;;;5032986;28;20084;-79
2023/05/10 13:28:26;;;;;;;5.28;4.35;;;;;;;;;;5034535;28;20095;-77
2023/05/10 13:30:52;;;;;;;4.90;4.43;;;;;;;;;;5031220;28;20042;-78
2023/05/10 13:33:18;;;;;;;4.53;4.13;;;;;;;;;;5047217;28;20057;-79
2023/05/10 13:35:45;;;;;;;5.00;4.28;;;;;;;;;;5045720;28;20060;-80
2023/05/10 13:38:11;;;;;;;4.30;4.00;;;;;;;;;;5030948;28;20076;-79
2023/05/10 13:40:37;;;;;;;5.10;4.70;;;;;;;;;;5028875;28;20434;-78
2023/05/10 13:43:03;;;;;;;4.50;4.10;;;;;;;;;;5047060;28;20048;-78
2023/05/10 13:45:29;;;;;;;5.30;4.80;;;;;;;;;;5042715;28;20048;-78
2023/05/10 13:47:55;;;;;;;5.45;4.95;;;;;;;;;;5051974;28;20132;-78
2023/05/10 13:50:21;;;;;;;5.18;4.68;;;;;;;;;;5050638;28;20053;-79
2023/05/10 13:52:47;;;;;;;5.97;5.35;;;;;;;;;;5032038;28;20076;-78
2023/05/10 13:55:16;;;;;;;5.50;5.00;;;;;;;;;;5031988;28;20111;-79
2023/05/10 13:57:42;;;;;;;6.13;5.53;;;;;;;;;;5041776;28;20083;-79
2023/05/10 14:00:09;;;;;;;6.63;6.03;;;;;;;;;;5045123;28;20493;-78
2023/05/10 14:02:35;;;;;;;6.93;6.22;;;;;;;;;;5031003;28;20149;-78
2023/05/10 14:05:01;;;;;;;6.70;6.10;;;;;;;;;;5042497;28;20079;-79
2023/05/10 14:07:27;;;;;;;7.05;6.35;;;;;;;;;;5032364;28;20088;-78
2023/05/10 14:09:53;;;;;;;6.07;5.47;;;;;;;;;;5032328;28;20041;-79
2023/05/10 14:12:19;;;;;;;6.03;5.43;;;;;;;;;;5028932;28;20049;-78
2023/05/10 14:14:45;;;;;;;6.25;5.65;;;;;;;;;;5038806;28;20366;-79
2023/05/10 14:17:14;;;;;;;5.38;4.88;;;;;;;;;;5034892;28;20056;-79
2023/05/10 14:19:40;;;;;;;5.25;4.65;;;;;;;;;;5034678;28;20392;-79
2023/05/10 14:22:13;;;;;;;6.65;5.85;;;;;;;;;;5032529;28;20045;-83
2023/05/10 14:24:39;;;;;;;5.97;5.40;;;;;;;;;;5045916;28;20113;-79
2023/05/10 14:27:05;;;;;;;5.97;5.22;;;;;;;;;;5039894;28;20469;-80
2023/05/10 14:29:31;;;;;;;7.40;5.97;;;;;;;;;;5041812;28;20088;-80
2023/05/10 14:31:57;;;;;;;6.15;5.55;;;;;;;;;;5052381;28;20128;-78
2023/05/10 14:34:23;;;;;;;5.85;5.25;;;;;;;;;;5043872;28;20194;-80
2023/05/10 14:36:50;;;;;;;5.10;4.60;;;;;;;;;;5045567;28;20499;-79
2023/05/10 14:39:16;;;;;;;5.05;4.63;;;;;;;;;;5047147;28;20040;-79